Time;durP1;ratioP1;P1;durP2;ratioP2;P2;SDS_P1;SDS_P2;PMS_P1;PMS_P2;Temp;Humidity;BMP_temperature;BMP_pressure;BME280_temperature;BME280_humidity;BME280_pressure;Samples;Min_cycle;Max_cycle;Signal;HPM_P1;HPM_P2
2022/12/17 13:06:04;;;;;;;8.20;4.67;;;;;;;-141.28;100.00;48138.50;5121164;28;20283;-75
2022/12/17 13:08:31;;;;;;;10.83;4.23;;;;;;;-141.28;100.00;48160.06;5104761;28;20208;-77
2022/12/17 13:11:14;;;;;;;8.23;4.20;;;;;;;-141.28;100.00;48201.25;5075854;28;20204;-76
2022/12/17 13:13:54;;;;;;;6.83;3.37;;;;;;;-141.28;100.00;48262.06;5094105;28;20662;-76
2022/12/17 13:16:33;;;;;;;4.73;3.70;;;;;;;-141.28;100.00;48277.75;5094460;28;20289;-77
2022/12/17 13:19:18;;;;;;;5.70;3.17;;;;;;;-141.28;100.00;48285.59;5109163;28;20191;-76
2022/12/17 13:21:46;;;;;;;4.00;2.77;;;;;;;-141.28;100.00;48313.06;5119915;28;20199;-75
2022/12/17 13:24:25;;;;;;;6.27;3.00;;;;;;;-141.28;100.00;48336.63;5118042;28;20203;-75
2022/12/17 13:27:06;;;;;;;5.67;3.77;;;;;;;-141.28;100.00;48360.16;5104223;28;20288;-76
2022/12/17 13:29:38;;;;;;;6.83;4.13;;;;;;;-141.28;100.00;48381.72;5115732;28;20318;-76
2022/12/17 13:32:19;;;;;;;8.27;5.30;;;;;;;-141.28;100.00;48383.69;5127997;28;20202;-76
2022/12/17 13:34:59;;;;;;;9.27;5.90;;;;;;;-141.28;100.00;48369.97;5106703;28;20203;-75
2022/12/17 13:37:40;;;;;;;9.03;5.73;;;;;;;-141.28;100.00;48293.47;5106231;28;20213;-79
2022/12/17 13:40:26;;;;;;;8.47;5.23;;;;;;;-141.28;100.00;48379.78;5107768;28;20195;-78
2022/12/17 13:43:02;;;;;;;10.20;5.80;;;;;;;-141.28;100.00;48364.06;5104091;28;20210;-77
2022/12/17 13:48:51;;;;;;;9.57;5.03;;;;;;;-141.28;100.00;49415.69;4374622;27;21907067;-78
2022/12/17 13:51:26;;;;;;;9.50;5.53;;;;;;;-141.28;100.00;49097.81;5123528;28;20194;-75
2022/12/17 13:54:01;;;;;;;7.13;5.50;;;;;;;-141.28;100.00;48901.59;5136506;28;20558;-76
2022/12/17 13:59:20;;;;;;;11.00;6.37;;;;;;;-141.28;100.00;48693.66;5132027;28;20198;-78
2022/12/17 14:01:49;;;;;;;13.50;6.13;;;;;;;-141.28;100.00;48685.81;5135270;28;20247;-76
2022/12/17 14:04:26;;;;;;;11.40;6.77;;;;;;;-141.28;100.00;48646.56;5134404;28;20222;-76
2022/12/17 14:06:57;;;;;;;15.37;8.97;;;;;;;-141.28;100.00;48634.78;5134312;27;20233;-76
2022/12/17 14:09:34;;;;;;;10.87;6.20;;;;;;;-141.28;100.00;48642.63;5129452;28;20202;-77
2022/12/17 14:12:23;;;;;;;9.80;6.83;;;;;;;-141.28;100.00;48624.97;5127037;28;20687;-77
2022/12/17 14:14:55;;;;;;;12.13;7.47;;;;;;;-141.28;100.00;48595.56;5116230;27;20194;-79
2022/12/17 14:17:27;;;;;;;17.33;8.80;;;;;;;-141.28;100.00;48587.72;5136121;28;20259;-76
2022/12/17 14:20:02;;;;;;;15.70;9.60;;;;;;;-141.28;100.00;48611.25;5129917;28;20218;-79
2022/12/17 14:22:46;;;;;;;14.33;8.90;;;;;;;-141.28;100.00;48630.88;5095333;28;20213;-75
2022/12/17 14:25:22;;;;;;;17.47;10.77;;;;;;;-141.28;100.00;48597.53;5123052;28;20281;-75
2022/12/17 14:28:00;;;;;;;17.27;10.90;;;;;;;-141.28;100.00;48607.31;5130893;28;20228;-77
2022/12/17 14:30:51;;;;;;;16.37;10.07;;;;;;;-141.28;100.00;48603.41;5113643;28;20208;-78
2022/12/17 14:33:41;;;;;;;18.73;11.13;;;;;;;-141.28;100.00;48556.31;5101045;28;20220;-76
2022/12/17 14:39:17;;;;;;;19.87;11.87;;;;;;;-141.28;100.00;48521.00;5111897;28;20927;-76
2022/12/17 14:44:53;;;;;;;16.70;9.63;;;;;;;-141.28;100.00;48517.09;5102197;28;20289;-77
2022/12/17 14:47:24;;;;;;;15.23;10.20;;;;;;;-141.28;100.00;48548.47;5105764;28;20235;-78
2022/12/17 14:50:05;;;;;;;18.90;9.77;;;;;;;-141.28;100.00;48556.31;5108486;28;20222;-79
2022/12/17 14:52:40;;;;;;;17.00;9.60;;;;;;;-141.28;100.00;48573.97;5107936;28;20655;-77
2022/12/17 14:55:25;;;;;;;15.33;8.93;;;;;;;-141.28;100.00;48560.25;5108417;28;20213;-79
2022/12/17 14:57:54;;;;;;;22.63;12.53;;;;;;;-141.28;100.00;48587.72;5104842;28;20211;-75
2022/12/17 15:00:22;;;;;;;15.20;9.07;;;;;;;-141.28;100.00;48681.88;5094348;28;20204;-76
2022/12/17 15:02:54;;;;;;;13.60;9.20;;;;;;;-141.28;100.00;48717.19;5094183;28;20203;-79
2022/12/17 15:05:22;;;;;;;13.83;8.30;;;;;;;-141.28;100.00;48721.13;5080958;28;20222;-78
2022/12/17 15:07:51;;;;;;;21.33;10.07;;;;;;;-141.28;100.00;48756.44;5094032;28;20234;-77
2022/12/17 15:10:20;;;;;;;18.87;9.90;;;;;;;-141.28;100.00;48791.75;5094083;28;20204;-75
2022/12/17 15:12:47;;;;;;;18.07;9.80;;;;;;;-141.28;100.00;48805.47;5094204;28;20277;-75
2022/12/17 15:15:15;;;;;;;14.60;9.70;;;;;;;-141.28;100.00;48819.22;5094058;28;20690;-76
2022/12/17 15:17:42;;;;;;;16.77;9.17;;;;;;;-141.28;100.00;48858.44;5092754;28;20639;-79
2022/12/17 15:20:17;;;;;;;14.17;9.30;;;;;;;-141.28;100.00;48860.41;5082199;28;20584;-79
2022/12/17 15:22:45;;;;;;;13.87;8.57;;;;;;;-141.28;100.00;48929.06;5093982;28;20264;-76
2022/12/17 15:25:17;;;;;;;15.67;9.40;;;;;;;-141.28;100.00;48954.59;5093579;28;20688;-75
2022/12/17 15:27:45;;;;;;;15.13;8.43;;;;;;;-141.28;100.00;48974.19;5093892;28;20231;-75
2022/12/17 15:30:15;;;;;;;12.97;8.40;;;;;;;-141.28;100.00;49015.41;5093568;28;20204;-76
2022/12/17 15:32:43;;;;;;;14.30;9.10;;;;;;;-141.28;100.00;49027.19;5094520;28;20208;-76
2022/12/17 15:35:14;;;;;;;19.63;10.77;;;;;;;-141.28;100.00;49011.47;5075516;28;20204;-75
2022/12/17 15:37:42;;;;;;;26.53;16.13;;;;;;;-141.28;100.00;49058.56;5093810;28;20199;-78
2022/12/17 15:40:11;;;;;;;13.37;8.20;;;;;;;-141.28;100.00;49105.66;5093401;28;20196;-77
2022/12/17 15:45:26;;;;;;;17.40;9.77;;;;;;;-141.28;100.00;48995.78;5082170;28;20245;-76
2022/12/17 15:47:54;;;;;;;18.83;10.03;;;;;;;-141.28;100.00;49097.81;5094074;28;20242;-75
2022/12/17 15:50:22;;;;;;;15.93;8.77;;;;;;;-141.28;100.00;49133.13;5092737;28;20460;-75
2022/12/17 15:52:49;;;;;;;16.63;9.40;;;;;;;-141.28;100.00;49146.84;5082026;28;20446;-76
2022/12/17 15:55:16;;;;;;;14.13;9.13;;;;;;;-141.28;100.00;49162.56;5093500;28;20522;-78
2022/12/17 15:57:45;;;;;;;16.17;9.47;;;;;;;-141.28;100.00;49190.03;5093403;28;20196;-77
2022/12/17 16:00:13;;;;;;;17.33;9.47;;;;;;;-141.28;100.00;49219.47;5093148;28;20207;-79
2022/12/17 16:02:42;;;;;;;19.00;10.50;;;;;;;-141.28;100.00;49250.84;5094100;28;20249;-78
2022/12/17 16:05:09;;;;;;;22.83;15.07;;;;;;;-141.28;100.00;49250.84;5092453;28;20219;-77
2022/12/17 16:07:37;;;;;;;23.33;13.67;;;;;;;-141.28;100.00;49282.25;5093296;28;20557;-76
2022/12/17 16:10:07;;;;;;;32.77;17.90;;;;;;;-141.28;100.00;49262.63;5092284;28;20240;-77
2022/12/17 16:12:35;;;;;;;26.20;16.93;;;;;;;-141.28;100.00;49297.94;5093446;28;20226;-77
2022/12/17 16:15:05;;;;;;;25.43;16.23;;;;;;;-141.28;100.00;49284.22;5074970;28;20209;-74
2022/12/17 16:17:32;;;;;;;30.23;18.77;;;;;;;-141.28;100.00;49305.78;5093238;28;20450;-76
2022/12/17 16:19:59;;;;;;;23.57;15.43;;;;;;;-141.28;100.00;49325.41;5092494;28;20461;-76
2022/12/17 16:22:27;;;;;;;32.23;17.77;;;;;;;-141.28;100.00;49337.19;5093377;28;20256;-78
2022/12/17 16:24:54;;;;;;;42.30;20.83;;;;;;;-141.28;100.00;49341.13;5093149;28;20731;-77
2022/12/17 16:27:22;;;;;;;27.33;16.20;;;;;;;-141.28;100.00;49299.91;5092831;28;20227;-75
2022/12/17 16:29:50;;;;;;;27.97;15.97;;;;;;;-141.28;100.00;49352.88;5092324;28;20470;-79
2022/12/17 16:32:19;;;;;;;29.00;17.50;;;;;;;-141.28;100.00;49362.69;5092413;28;20468;-80
2022/12/17 16:34:46;;;;;;;26.23;15.43;;;;;;;-141.28;100.00;49368.59;5092530;28;20687;-77
2022/12/17 16:37:13;;;;;;;24.90;15.43;;;;;;;-141.28;100.00;49348.97;5092541;28;20208;-79
2022/12/17 16:39:45;;;;;;;33.33;19.20;;;;;;;-141.28;100.00;49239.09;5092185;28;20260;-74
2022/12/17 16:42:13;;;;;;;41.10;24.30;;;;;;;-141.28;100.00;49313.66;5092328;28;20522;-80
2022/12/17 16:44:40;;;;;;;35.90;21.93;;;;;;;-141.28;100.00;49207.69;5092529;28;20666;-74
2022/12/17 16:47:07;;;;;;;38.90;22.53;;;;;;;-141.28;100.00;49333.25;5094063;28;20558;-74
2022/12/17 16:49:36;;;;;;;25.70;13.87;;;;;;;-141.28;100.00;49315.59;5103946;28;20537;-76
2022/12/17 16:52:03;;;;;;;25.93;13.97;;;;;;;-141.28;100.00;49317.56;5096227;28;20264;-77
2022/12/17 16:54:32;;;;;;;21.37;12.43;;;;;;;-141.28;100.00;49292.06;5092115;28;20689;-76
2022/12/17 16:57:00;;;;;;;28.90;14.83;;;;;;;-141.28;100.00;49325.41;5092122;28;20835;-78
2022/12/17 16:59:27;;;;;;;27.00;14.57;;;;;;;-141.28;100.00;49325.41;5092158;28;20207;-78
2022/12/17 17:01:56;;;;;;;31.43;14.03;;;;;;;-141.28;100.00;49282.25;5092600;28;20462;-79
2022/12/17 17:04:25;;;;;;;26.60;15.37;;;;;;;-141.28;100.00;49356.81;5092224;28;20452;-76
2022/12/17 17:06:55;;;;;;;32.50;17.87;;;;;;;-141.28;100.00;49360.75;5092275;28;20196;-77
2022/12/17 17:09:25;;;;;;;27.70;15.63;;;;;;;-141.28;100.00;49376.44;5092681;28;20920;-75
2022/12/17 17:11:55;;;;;;;41.60;25.10;;;;;;;-141.28;100.00;49372.50;5095949;28;20509;-77
2022/12/17 17:14:24;;;;;;;59.70;31.70;;;;;;;-141.28;100.00;49411.75;5095302;28;20453;-75
2022/12/17 17:16:51;;;;;;;69.27;42.33;;;;;;;-141.28;100.00;49417.63;5092321;28;20525;-76
2022/12/17 17:19:20;;;;;;;51.07;28.67;;;;;;;-141.28;100.00;49425.50;5079143;28;20446;-76
2022/12/17 17:21:51;;;;;;;43.70;24.23;;;;;;;-141.28;100.00;49454.94;5092037;28;20479;-77
2022/12/17 17:24:23;;;;;;;50.37;27.30;;;;;;;-141.28;100.00;49396.06;5094119;28;20449;-76
2022/12/17 17:26:51;;;;;;;42.13;24.07;;;;;;;-141.28;100.00;49439.22;5096091;28;20442;-75
2022/12/17 17:29:19;;;;;;;37.73;23.20;;;;;;;-141.28;100.00;49443.16;5093998;28;20650;-76
2022/12/17 17:31:47;;;;;;;41.57;25.70;;;;;;;-141.28;100.00;49470.63;5076846;28;20509;-76
2022/12/17 17:34:15;;;;;;;38.60;23.50;;;;;;;-141.28;100.00;49474.53;5094199;28;20437;-76
2022/12/17 17:36:43;;;;;;;42.37;25.07;;;;;;;-141.28;100.00;49462.78;5093363;28;20446;-77
2022/12/17 17:39:10;;;;;;;32.43;21.20;;;;;;;-141.28;100.00;49464.72;5093103;28;20843;-75
2022/12/17 17:41:39;;;;;;;36.20;22.87;;;;;;;-141.28;100.00;49460.81;5093679;28;20441;-78
2022/12/17 17:44:11;;;;;;;34.30;21.60;;;;;;;-141.28;100.00;49441.19;5091652;28;20953;-76
2022/12/17 17:46:39;;;;;;;35.53;20.83;;;;;;;-141.28;100.00;49437.25;5091773;28;20449;-77
2022/12/17 17:49:08;;;;;;;31.50;20.73;;;;;;;-141.28;100.00;49415.69;5091275;28;20546;-77
2022/12/17 17:51:40;;;;;;;33.27;21.80;;;;;;;-141.28;100.00;49372.50;5091818;28;20441;-76
2022/12/17 17:54:08;;;;;;;35.80;23.63;;;;;;;-141.28;100.00;49345.03;5091987;28;20446;-75
2022/12/17 17:56:41;;;;;;;42.43;23.47;;;;;;;-141.28;100.00;49360.75;5091805;28;20441;-78
2022/12/17 17:59:10;;;;;;;38.43;23.93;;;;;;;-141.28;100.00;49352.88;5091889;28;20860;-76
2022/12/17 18:01:40;;;;;;;38.10;22.27;;;;;;;-141.28;100.00;49343.06;5091322;28;20511;-76
2022/12/17 18:04:10;;;;;;;36.00;23.57;;;;;;;-141.28;100.00;49325.41;5091597;28;20515;-76
2022/12/17 18:06:39;;;;;;;47.10;27.93;;;;;;;-141.28;100.00;49345.03;5091032;28;20204;-76
2022/12/17 18:09:07;;;;;;;45.27;27.13;;;;;;;-141.28;100.00;49362.69;5092150;28;21101;-76
2022/12/17 18:11:35;;;;;;;48.03;26.70;;;;;;;-141.28;100.00;49352.88;5091371;28;20452;-76
2022/12/17 18:14:05;;;;;;;39.40;24.80;;;;;;;-141.28;100.00;49407.84;5091410;28;20442;-76
2022/12/17 18:16:35;;;;;;;41.87;25.27;;;;;;;-141.28;100.00;49423.53;5091272;28;20476;-75
2022/12/17 18:19:05;;;;;;;39.47;23.53;;;;;;;-141.28;100.00;49423.53;5091533;28;20454;-77
2022/12/17 18:21:32;;;;;;;36.17;20.93;;;;;;;-141.28;100.00;49425.50;5091198;28;20477;-78
2022/12/17 18:24:02;;;;;;;43.63;27.10;;;;;;;-141.28;100.00;49415.69;5090916;28;20892;-77
2022/12/17 18:26:31;;;;;;;45.73;27.27;;;;;;;-141.28;100.00;49478.47;5091259;28;20467;-77
2022/12/17 18:29:01;;;;;;;42.73;26.57;;;;;;;-141.28;100.00;49505.94;5073116;28;20666;-76
2022/12/17 18:31:31;;;;;;;45.00;30.17;;;;;;;-141.28;100.00;49435.31;5092130;28;20480;-76
2022/12/17 18:34:02;;;;;;;53.20;31.27;;;;;;;-141.28;100.00;49466.69;5092635;28;20612;-78
2022/12/17 18:36:31;;;;;;;45.20;28.87;;;;;;;-141.28;100.00;49529.50;5094765;28;20480;-76
2022/12/17 18:39:00;;;;;;;46.30;26.83;;;;;;;-141.28;100.00;49486.31;5094742;28;20449;-76
2022/12/17 18:44:24;;;;;;;65.63;34.33;;;;;;;-141.28;100.00;49184.13;5032615;28;20450;-80
2022/12/17 18:46:52;;;;;;;67.37;38.23;;;;;;;-141.28;100.00;49388.22;5079815;28;20869;-75
2022/12/17 18:49:21;;;;;;;68.53;39.20;;;;;;;-141.28;100.00;49411.75;5094680;28;20996;-77
2022/12/17 18:51:51;;;;;;;79.53;43.93;;;;;;;-141.28;100.00;49439.22;5094663;28;20525;-76
2022/12/17 18:54:20;;;;;;;76.50;42.90;;;;;;;-141.28;100.00;49464.72;5082140;28;20453;-77
2022/12/17 18:56:48;;;;;;;79.37;45.53;;;;;;;-141.28;100.00;49494.16;5094414;28;20524;-79
2022/12/17 18:59:17;;;;;;;114.27;54.90;;;;;;;-141.28;100.00;49553.03;5094440;28;20457;-77
2022/12/17 19:01:45;;;;;;;83.00;41.03;;;;;;;-141.28;100.00;49537.34;5094354;28;20935;-76
2022/12/17 19:04:17;;;;;;;62.20;35.77;;;;;;;-141.28;100.00;49545.19;5094665;28;20879;-79
2022/12/17 19:06:47;;;;;;;60.07;35.23;;;;;;;-141.28;100.00;49529.50;5093983;28;20453;-76
2022/12/17 19:09:17;;;;;;;59.30;33.63;;;;;;;-141.28;100.00;49521.63;5094699;28;20520;-77
2022/12/17 19:11:45;;;;;;;73.13;37.80;;;;;;;-141.28;100.00;49541.25;5094500;28;20448;-78
2022/12/17 19:14:15;;;;;;;59.97;34.07;;;;;;;-141.28;100.00;49519.69;5094621;28;20454;-78
2022/12/17 19:16:43;;;;;;;46.90;27.37;;;;;;;-141.28;100.00;49470.63;5075974;28;20445;-77
2022/12/17 19:19:13;;;;;;;39.47;24.17;;;;;;;-141.28;100.00;49564.81;5095123;28;20481;-76
2022/12/17 19:21:41;;;;;;;37.67;24.53;;;;;;;-141.28;100.00;49513.78;5094256;28;20852;-77
2022/12/17 19:24:12;;;;;;;34.73;22.77;;;;;;;-141.28;100.00;49527.53;5095291;28;20445;-79
2022/12/17 19:26:39;;;;;;;36.83;21.93;;;;;;;-141.28;100.00;49560.88;5094160;28;20457;-76
2022/12/17 19:29:14;;;;;;;36.70;22.73;;;;;;;-141.28;100.00;49556.97;5094674;28;20521;-76
2022/12/17 19:31:43;;;;;;;35.20;22.00;;;;;;;-141.28;100.00;49462.78;5082823;28;20481;-77
2022/12/17 19:34:15;;;;;;;31.00;20.33;;;;;;;-141.28;100.00;49360.75;5094662;28;20479;-76
2022/12/17 19:36:43;;;;;;;34.23;21.97;;;;;;;-141.28;100.00;49482.41;5094486;28;20446;-76
2022/12/17 19:39:15;;;;;;;31.13;18.73;;;;;;;-141.28;100.00;49486.31;5094512;28;20446;-79
2022/12/17 19:41:46;;;;;;;33.27;20.47;;;;;;;-141.28;100.00;49358.78;5094390;28;20442;-76
2022/12/17 19:44:15;;;;;;;31.27;19.13;;;;;;;-141.28;100.00;49503.97;5093879;28;20494;-77
2022/12/17 19:46:43;;;;;;;31.77;20.77;;;;;;;-141.28;100.00;49500.06;5094261;28;20816;-76
2022/12/17 19:49:12;;;;;;;30.07;17.97;;;;;;;-141.28;100.00;49556.97;5093867;28;20492;-78
2022/12/17 19:51:43;;;;;;;27.80;17.70;;;;;;;-141.28;100.00;49545.19;5093631;28;20442;-78
2022/12/17 19:54:11;;;;;;;32.43;17.47;;;;;;;-141.28;100.00;49551.06;5095400;28;20453;-77
2022/12/17 19:56:40;;;;;;;24.90;16.37;;;;;;;-141.28;100.00;49384.28;5095044;28;20442;-78
2022/12/17 19:59:10;;;;;;;31.20;17.07;;;;;;;-141.28;100.00;49533.41;5094693;28;20452;-78
2022/12/17 20:01:39;;;;;;;30.43;16.70;;;;;;;-141.28;100.00;49458.84;5093734;28;20452;-76
2022/12/17 20:04:07;;;;;;;31.57;16.53;;;;;;;-141.28;100.00;49543.22;5093789;28;20842;-75
2022/12/17 20:06:35;;;;;;;29.67;17.43;;;;;;;-141.28;100.00;49533.41;5094110;28;20498;-77
2022/12/17 20:09:05;;;;;;;31.00;16.77;;;;;;;-141.28;100.00;49547.16;5093871;28;20539;-77
2022/12/17 20:11:37;;;;;;;26.97;15.80;;;;;;;-141.28;100.00;49535.38;5094784;28;20566;-76
2022/12/17 20:14:07;;;;;;;26.47;17.50;;;;;;;-141.28;100.00;49454.94;5093728;28;20449;-76
2022/12/17 20:16:36;;;;;;;31.90;17.70;;;;;;;-141.28;100.00;49515.75;5093516;28;20483;-76
2022/12/17 20:19:06;;;;;;;28.93;17.33;;;;;;;-141.28;100.00;49507.91;5093512;28;20454;-77
2022/12/17 20:21:34;;;;;;;29.33;18.57;;;;;;;-141.28;100.00;49533.41;5094067;28;20890;-77
2022/12/17 20:24:07;;;;;;;26.23;17.30;;;;;;;-141.28;100.00;49529.50;5093470;28;20829;-75
2022/12/17 20:26:35;;;;;;;30.33;16.63;;;;;;;-141.28;100.00;49533.41;5093605;28;20460;-75
2022/12/17 20:29:05;;;;;;;26.57;16.80;;;;;;;-141.28;100.00;49549.13;5093106;28;20512;-76
2022/12/17 20:31:33;;;;;;;26.10;15.97;;;;;;;-141.28;100.00;49541.25;5094838;28;20464;-75
2022/12/17 20:34:00;;;;;;;24.97;15.63;;;;;;;-141.28;100.00;49545.19;5083443;28;20458;-78
2022/12/17 20:36:30;;;;;;;29.53;16.07;;;;;;;-141.28;100.00;49482.41;5094360;28;20454;-76
2022/12/17 20:38:58;;;;;;;24.87;15.27;;;;;;;-141.28;100.00;49525.56;5074565;28;20537;-78
2022/12/17 20:41:29;;;;;;;23.83;15.00;;;;;;;-141.28;100.00;49474.53;5093074;28;20453;-77
2022/12/17 20:43:56;;;;;;;24.67;15.10;;;;;;;-141.28;100.00;49529.50;5092766;28;20446;-80
2022/12/17 20:46:26;;;;;;;26.60;15.43;;;;;;;-141.28;100.00;49541.25;5092687;28;20454;-79
2022/12/17 20:48:54;;;;;;;24.80;15.20;;;;;;;-141.28;100.00;49570.69;5091992;28;20485;-79
2022/12/17 20:51:23;;;;;;;26.80;15.93;;;;;;;-141.28;100.00;49460.81;5093008;28;20460;-76
2022/12/17 20:53:51;;;;;;;25.70;15.50;;;;;;;-141.28;100.00;49502.03;5092640;28;20453;-76
2022/12/17 20:56:20;;;;;;;31.33;16.47;;;;;;;-141.28;100.00;49578.56;5092617;28;20446;-80
2022/12/17 20:58:52;;;;;;;23.57;15.17;;;;;;;-141.28;100.00;49560.88;5092459;28;20541;-77
2022/12/17 21:01:21;;;;;;;25.00;14.60;;;;;;;-141.28;100.00;49568.75;5092477;28;20456;-77
2022/12/17 21:03:50;;;;;;;26.17;16.03;;;;;;;-141.28;100.00;49564.81;5092346;28;20438;-78
2022/12/17 21:06:21;;;;;;;25.73;14.50;;;;;;;-141.28;100.00;49568.75;5093218;28;20886;-77
2022/12/17 21:08:50;;;;;;;25.40;14.87;;;;;;;-141.28;100.00;49556.97;5092051;28;20481;-79
2022/12/17 21:11:19;;;;;;;25.20;14.50;;;;;;;-141.28;100.00;49572.66;5092562;28;20453;-75
2022/12/17 21:13:49;;;;;;;24.23;14.30;;;;;;;-141.28;100.00;49580.50;5092949;28;20442;-76
2022/12/17 21:16:18;;;;;;;21.73;13.93;;;;;;;-141.28;100.00;49498.09;5093824;28;20514;-78
2022/12/17 21:18:45;;;;;;;25.77;14.73;;;;;;;-141.28;100.00;49596.22;5075779;28;20457;-76
2022/12/17 21:21:15;;;;;;;20.77;13.13;;;;;;;-141.28;100.00;49615.84;5092494;28;20454;-77
2022/12/17 21:23:43;;;;;;;19.80;13.33;;;;;;;-141.28;100.00;49611.91;5093408;28;20956;-77
2022/12/17 21:26:13;;;;;;;20.77;12.83;;;;;;;-141.28;100.00;49643.31;5077890;28;20449;-75
2022/12/17 21:28:43;;;;;;;17.33;11.30;;;;;;;-141.28;100.00;49639.38;5101931;28;21026;-76
2022/12/17 21:31:17;;;;;;;17.10;11.23;;;;;;;-141.28;100.00;49631.53;5092174;28;21204;-77
2022/12/17 21:33:46;;;;;;;15.67;10.93;;;;;;;-141.28;100.00;49615.84;5092380;28;20446;-76
2022/12/17 21:36:13;;;;;;;19.20;11.73;;;;;;;-141.28;100.00;49615.84;5092937;28;20458;-77
2022/12/17 21:38:41;;;;;;;17.97;11.50;;;;;;;-141.28;100.00;49647.22;5093336;28;20450;-78
2022/12/17 21:41:10;;;;;;;21.60;13.07;;;;;;;-141.28;100.00;49666.84;5093933;28;20461;-77
2022/12/17 21:43:38;;;;;;;18.20;12.27;;;;;;;-141.28;100.00;49694.31;5093351;28;20445;-76
2022/12/17 21:46:07;;;;;;;16.90;11.10;;;;;;;-141.28;100.00;49513.78;5092944;28;20453;-77
2022/12/17 21:48:38;;;;;;;18.57;11.97;;;;;;;-141.28;100.00;49710.03;5104921;28;20469;-77
2022/12/17 21:51:08;;;;;;;20.13;11.33;;;;;;;-141.28;100.00;49659.00;5097002;28;20491;-79
2022/12/17 21:53:36;;;;;;;19.17;11.70;;;;;;;-141.28;100.00;49698.25;5113833;28;20460;-76
2022/12/17 21:56:06;;;;;;;16.43;10.17;;;;;;;-141.28;100.00;49692.38;5112937;28;20476;-75
2022/12/17 21:58:35;;;;;;;16.87;11.07;;;;;;;-141.28;100.00;49619.75;5110586;28;20450;-76
2022/12/17 22:01:08;;;;;;;15.30;10.40;;;;;;;-141.28;100.00;49674.72;5098320;28;20434;-76
2022/12/17 22:03:37;;;;;;;16.13;11.03;;;;;;;-141.28;100.00;49682.56;5092697;28;20507;-77
2022/12/17 22:06:08;;;;;;;19.17;10.43;;;;;;;-141.28;100.00;49639.38;5093631;28;20440;-75
2022/12/17 22:08:35;;;;;;;16.20;10.33;;;;;;;-141.28;100.00;49713.94;5093840;28;20445;-77
2022/12/17 22:11:03;;;;;;;15.23;10.30;;;;;;;-141.28;100.00;49713.94;5096363;28;20454;-75
2022/12/17 22:16:15;;;;;;;14.93;9.37;;;;;;;-141.28;100.00;49647.22;5096370;28;20582;-79
2022/12/17 22:18:43;;;;;;;13.13;9.03;;;;;;;-141.28;100.00;49694.31;5095311;28;20491;-78
2022/12/17 22:21:11;;;;;;;15.93;9.53;;;;;;;-141.28;100.00;49725.72;5087842;28;20442;-77
2022/12/17 22:23:37;;;;;;;14.20;9.70;;;;;;;-141.28;100.00;49749.28;5094878;28;20460;-76
2022/12/17 22:26:09;;;;;;;14.60;8.50;;;;;;;-141.28;100.00;49788.53;5096402;28;20826;-75
2022/12/17 22:28:36;;;;;;;13.77;8.20;;;;;;;-141.28;100.00;49796.38;5095181;28;20497;-79
2022/12/17 22:33:51;;;;;;;11.80;7.93;;;;;;;-141.28;100.00;49710.03;5083824;28;20800;-76
2022/12/17 22:36:18;;;;;;;10.87;7.70;;;;;;;-141.28;100.00;49741.44;5095368;28;20804;-75
2022/12/17 22:38:46;;;;;;;11.03;7.70;;;;;;;-141.28;100.00;49759.09;5096154;28;20884;-75
2022/12/17 22:43:28;;;;;;;12.83;8.40;;;;;;;-141.28;100.00;49796.38;5087688;28;20512;-77
2022/12/17 22:44:00;;;;;;;11.93;8.40;;;;;;;-141.28;100.00;49690.41;5091858;28;20441;-79
2022/12/17 22:46:27;;;;;;;9.87;7.10;;;;;;;-141.28;100.00;49725.72;5095057;28;20453;-76
2022/12/17 22:48:56;;;;;;;10.17;6.77;;;;;;;-141.28;100.00;49768.91;5094731;28;20511;-76
2022/12/17 22:51:25;;;;;;;10.27;7.33;;;;;;;-141.28;100.00;49768.91;5092505;28;20469;-79
2022/12/17 22:53:53;;;;;;;10.70;7.40;;;;;;;-141.28;100.00;49788.53;5095335;28;20477;-78
2022/12/17 22:56:20;;;;;;;8.27;6.33;;;;;;;-141.28;100.00;49796.38;5095077;28;20441;-77
2022/12/17 22:58:47;;;;;;;9.87;6.80;;;;;;;-141.28;100.00;49855.25;5111551;28;20453;-76
2022/12/17 23:01:16;;;;;;;7.70;5.43;;;;;;;-141.28;100.00;49843.47;5112725;28;20450;-75
2022/12/17 23:03:43;;;;;;;8.60;5.87;;;;;;;-141.28;100.00;49859.19;5113082;28;20462;-75
2022/12/17 23:06:15;;;;;;;7.87;5.50;;;;;;;-141.28;100.00;49847.41;5095834;28;20449;-77
2022/12/17 23:08:42;;;;;;;7.73;5.57;;;;;;;-141.28;100.00;49851.31;5095067;28;20453;-76
2022/12/17 23:11:10;;;;;;;9.90;6.27;;;;;;;-141.28;100.00;49817.97;5094619;28;20512;-76
2022/12/17 23:13:39;;;;;;;7.33;5.40;;;;;;;-141.28;100.00;49839.56;5094452;28;20925;-76
2022/12/17 23:16:07;;;;;;;8.30;5.33;;;;;;;-141.28;100.00;49843.47;5094599;28;20452;-77
2022/12/17 23:18:34;;;;;;;9.17;5.23;;;;;;;-141.28;100.00;49827.78;5095443;28;20446;-78
2022/12/17 23:21:06;;;;;;;8.57;5.40;;;;;;;-141.28;100.00;49823.84;5093867;28;20481;-77
2022/12/17 23:23:35;;;;;;;7.87;5.70;;;;;;;-141.28;100.00;49757.13;5095799;28;20541;-76
2022/12/17 23:26:08;;;;;;;7.10;5.13;;;;;;;-141.28;100.00;49788.53;5094832;28;20470;-76
2022/12/17 23:28:38;;;;;;;7.40;4.90;;;;;;;-141.28;100.00;49847.41;5094702;28;20469;-76
2022/12/17 23:31:09;;;;;;;7.13;4.70;;;;;;;-141.28;100.00;49776.75;5082065;28;20493;-77
2022/12/17 23:33:37;;;;;;;9.17;5.57;;;;;;;-141.28;100.00;49812.06;5094320;28;20499;-76
2022/12/17 23:36:05;;;;;;;8.50;5.33;;;;;;;-141.28;100.00;49863.09;5094482;28;20446;-78
2022/12/17 23:38:34;;;;;;;8.10;5.27;;;;;;;-141.28;100.00;49835.63;5094372;28;20453;-77
2022/12/17 23:41:07;;;;;;;7.27;5.37;;;;;;;-141.28;100.00;49725.72;5094361;28;20445;-77
2022/12/17 23:43:35;;;;;;;7.23;5.23;;;;;;;-141.28;100.00;49849.38;5098503;28;20442;-74
2022/12/17 23:46:03;;;;;;;7.70;5.30;;;;;;;-141.28;100.00;49851.31;5084233;28;20502;-76
2022/12/17 23:48:31;;;;;;;6.57;5.17;;;;;;;-141.28;100.00;49888.63;5101571;28;20477;-74
2022/12/17 23:51:00;;;;;;;7.27;5.50;;;;;;;-141.28;100.00;49880.75;5102492;28;20493;-75
2022/12/17 23:53:28;;;;;;;7.63;5.57;;;;;;;-141.28;100.00;49870.94;5099790;28;20480;-76
2022/12/17 23:55:56;;;;;;;9.83;6.10;;;;;;;-141.28;100.00;49945.53;5097008;28;20450;-74
2022/12/17 23:58:23;;;;;;;9.23;6.00;;;;;;;-141.28;100.00;49955.34;5095867;28;20449;-75
